createdAt,value
2023-04-12T00:01:55.241Z,13.87
2023-04-12T00:04:28.736Z,11.13
2023-04-12T00:06:57.911Z,10.07
2023-04-12T00:09:30.756Z,11.03
2023-04-12T00:11:59.228Z,13.27
2023-04-12T00:14:27.280Z,9.53
2023-04-12T00:16:55.472Z,10.37
2023-04-12T00:19:25.935Z,10.03
2023-04-12T00:21:53.899Z,10.83
2023-04-12T00:24:21.900Z,10.27
2023-04-12T00:26:49.887Z,11.07
2023-04-12T00:29:18.052Z,9.00
2023-04-12T00:31:46.180Z,9.57
2023-04-12T00:34:14.190Z,10.07
2023-04-12T00:36:43.543Z,9.43
2023-04-12T00:39:11.508Z,9.10
2023-04-12T00:41:39.509Z,10.83
2023-04-12T00:44:07.827Z,9.43
2023-04-12T00:46:36.164Z,8.97
2023-04-12T00:49:04.473Z,8.97
2023-04-12T00:51:33.710Z,7.57
2023-04-12T00:54:03.771Z,7.40
2023-04-12T00:56:32.533Z,8.20
2023-04-12T00:59:01.967Z,8.70
2023-04-12T01:01:31.952Z,7.60
2023-04-12T01:04:01.494Z,8.17
2023-04-12T01:06:42.437Z,7.03
2023-04-12T01:09:30.243Z,7.73
2023-04-12T01:12:08.852Z,9.83
2023-04-12T01:14:45.448Z,7.10
2023-04-12T01:17:17.461Z,7.60
2023-04-12T01:19:59.062Z,8.17
2023-04-12T01:22:47.806Z,8.70
2023-04-12T01:25:39.313Z,8.70
2023-04-12T01:28:13.123Z,8.00
2023-04-12T01:30:43.295Z,8.00
2023-04-12T01:33:13.571Z,5.37
2023-04-12T01:35:42.361Z,6.37
2023-04-12T01:38:11.306Z,6.37
2023-04-12T01:40:40.790Z,5.30
2023-04-12T01:43:11.562Z,5.97
2023-04-12T01:45:39.987Z,6.33
2023-04-12T01:48:10.944Z,7.57
2023-04-12T01:50:45.949Z,7.00
2023-04-12T01:53:19.466Z,7.00
2023-04-12T01:55:49.866Z,4.93
2023-04-12T01:58:23.156Z,4.13
2023-04-12T02:00:51.912Z,4.17
2023-04-12T02:03:21.975Z,4.43
2023-04-12T02:05:51.894Z,4.23
2023-04-12T02:08:19.966Z,4.50
2023-04-12T02:10:47.924Z,4.17
2023-04-12T02:13:18.112Z,4.60
2023-04-12T02:15:47.558Z,3.60
2023-04-12T02:18:16.997Z,3.83
2023-04-12T02:20:45.054Z,3.93
2023-04-12T02:23:13.607Z,4.80
2023-04-12T02:25:41.649Z,4.17
2023-04-12T02:28:09.596Z,3.80
2023-04-12T02:30:38.370Z,3.83
2023-04-12T02:33:09.449Z,4.80
2023-04-12T02:35:38.494Z,4.10
2023-04-12T02:38:08.153Z,3.93
2023-04-12T02:40:39.159Z,3.57
2023-04-12T02:43:07.223Z,3.87
2023-04-12T02:45:35.271Z,4.03
2023-04-12T02:48:05.023Z,5.93
2023-04-12T02:50:34.520Z,3.63
2023-04-12T02:53:02.453Z,4.40
2023-04-12T02:55:31.624Z,4.50
2023-04-12T02:57:59.624Z,6.17
2023-04-12T03:00:27.670Z,4.20
2023-04-12T03:02:55.792Z,5.10
2023-04-12T03:05:24.154Z,6.07
2023-04-12T03:07:53.513Z,4.73
2023-04-12T03:10:21.581Z,4.93
2023-04-12T03:12:49.561Z,4.33
2023-04-12T03:15:18.801Z,3.90
2023-04-12T03:17:46.819Z,4.37
2023-04-12T03:20:14.925Z,4.07
2023-04-12T03:22:42.989Z,4.23
2023-04-12T03:25:12.729Z,4.60
2023-04-12T03:27:40.773Z,5.23
2023-04-12T03:30:10.405Z,4.30
2023-04-12T03:32:38.501Z,5.10
2023-04-12T03:35:07.724Z,4.50
2023-04-12T03:37:36.023Z,6.03
2023-04-12T03:40:05.933Z,6.47
2023-04-12T03:42:35.267Z,4.17
2023-04-12T03:45:03.285Z,4.70
2023-04-12T03:47:31.757Z,4.23
2023-04-12T03:50:11.373Z,4.30
2023-04-12T03:52:40.216Z,3.30
2023-04-12T03:55:08.864Z,4.53
2023-04-12T03:57:38.187Z,4.10
2023-04-12T04:00:08.496Z,4.30
2023-04-12T04:02:36.789Z,4.53
2023-04-12T04:05:05.389Z,4.67
2023-04-12T04:07:33.487Z,4.77
2023-04-12T04:10:01.593Z,5.80
2023-04-12T04:12:29.621Z,4.97
2023-04-12T04:14:58.983Z,3.33
2023-04-12T04:17:26.997Z,5.23
2023-04-12T04:19:54.956Z,3.80
2023-04-12T04:22:23.107Z,4.27
2023-04-12T04:24:53.221Z,4.60
2023-04-12T04:27:22.222Z,4.67
2023-04-12T04:29:51.127Z,4.23
2023-04-12T04:32:20.667Z,3.43
2023-04-12T04:34:48.641Z,3.93
2023-04-12T04:37:17.424Z,4.10
2023-04-12T04:39:45.441Z,5.10
2023-04-12T04:42:13.419Z,5.23
2023-04-12T04:44:41.543Z,4.90
2023-04-12T04:47:09.601Z,7.10
2023-04-12T04:49:39.149Z,6.10
2023-04-12T04:52:08.708Z,5.73
2023-04-12T04:54:36.869Z,5.73
2023-04-12T04:57:07.978Z,7.33
2023-04-12T04:59:35.993Z,6.23
2023-04-12T05:02:04.076Z,7.77
2023-04-12T05:04:32.491Z,5.97
2023-04-12T05:07:01.968Z,6.03
2023-04-12T05:09:30.043Z,7.47
2023-04-12T05:11:57.993Z,6.10
2023-04-12T05:14:37.433Z,6.57
2023-04-12T05:17:12.335Z,5.73
2023-04-12T05:19:41.385Z,6.17
2023-04-12T05:22:10.988Z,5.30
2023-04-12T05:24:38.985Z,6.57
2023-04-12T05:27:07.010Z,7.07
2023-04-12T05:29:35.025Z,6.03
2023-04-12T05:32:04.036Z,7.03
2023-04-12T05:34:32.246Z,6.23
2023-04-12T05:37:00.694Z,8.63
2023-04-12T05:39:30.068Z,10.33
2023-04-12T05:41:58.118Z,10.83
2023-04-12T05:44:26.168Z,11.10
2023-04-12T05:46:54.147Z,11.63
2023-04-12T05:49:22.217Z,12.33
2023-04-12T05:51:50.351Z,12.13
2023-04-12T05:54:20.944Z,12.07
2023-04-12T05:56:50.299Z,12.77
2023-04-12T05:59:18.682Z,18.23
2023-04-12T06:01:47.095Z,14.33
2023-04-12T06:04:15.905Z,14.97
2023-04-12T06:06:44.600Z,14.97
2023-04-12T06:09:12.998Z,15.50
2023-04-12T06:11:40.953Z,15.03
2023-04-12T06:14:11.872Z,13.60
2023-04-12T06:16:41.864Z,14.73
2023-04-12T06:19:10.949Z,13.90
2023-04-12T06:21:39.005Z,13.87
2023-04-12T06:24:08.002Z,15.93
2023-04-12T06:26:40.251Z,15.30
2023-04-12T06:29:09.800Z,17.67
2023-04-12T06:31:37.855Z,17.70
2023-04-12T06:34:06.046Z,19.80
2023-04-12T06:36:34.000Z,17.20
2023-04-12T06:39:02.004Z,20.03
2023-04-12T06:41:29.968Z,18.90
2023-04-12T06:43:58.223Z,21.33
2023-04-12T06:46:30.862Z,20.13
2023-04-12T06:48:59.235Z,20.97
2023-04-12T06:51:28.135Z,21.27
2023-04-12T06:53:57.655Z,24.00
2023-04-12T06:56:25.865Z,22.53
2023-04-12T06:58:53.849Z,22.40
2023-04-12T07:01:21.893Z,26.63
2023-04-12T07:03:51.693Z,23.20
2023-04-12T07:06:25.493Z,21.87
2023-04-12T07:08:53.996Z,22.53
2023-04-12T07:11:23.797Z,25.67
2023-04-12T07:13:52.147Z,21.87
2023-04-12T07:16:20.334Z,22.90
2023-04-12T07:18:48.721Z,22.37
2023-04-12T07:21:18.575Z,23.87
2023-04-12T07:23:47.550Z,28.90
2023-04-12T07:26:15.798Z,29.20
2023-04-12T07:28:43.769Z,33.73
2023-04-12T07:31:11.826Z,23.50
2023-04-12T07:33:42.340Z,24.47
2023-04-12T07:36:12.197Z,26.97
2023-04-12T07:38:41.634Z,25.40
2023-04-12T07:41:09.732Z,30.97
2023-04-12T07:43:37.827Z,31.23
2023-04-12T07:46:09.031Z,26.30
2023-04-12T07:48:37.231Z,26.80
2023-04-12T07:51:06.236Z,28.07
2023-04-12T07:53:34.243Z,31.00
2023-04-12T07:56:05.189Z,32.43
2023-04-12T07:58:34.976Z,35.13
2023-04-12T08:01:02.948Z,29.47
2023-04-12T08:03:31.230Z,28.10
2023-04-12T08:05:59.580Z,35.73
2023-04-12T08:08:27.584Z,41.97
2023-04-12T08:10:55.619Z,45.20
2023-04-12T08:13:25.937Z,43.63
2023-04-12T08:15:53.996Z,48.53
2023-04-12T08:18:22.037Z,43.27
2023-04-12T08:20:50.027Z,44.37
2023-04-12T08:23:18.028Z,45.50
2023-04-12T08:25:46.023Z,50.70
2023-04-12T08:28:14.175Z,43.60
2023-04-12T08:30:44.406Z,45.33
2023-04-12T08:33:12.388Z,48.60
2023-04-12T08:35:41.070Z,52.90
2023-04-12T08:38:09.156Z,57.83
2023-04-12T08:40:38.136Z,55.97
2023-04-12T08:43:12.296Z,54.83
2023-04-12T08:45:40.562Z,57.33
2023-04-12T08:48:11.025Z,52.80
2023-04-12T08:50:39.155Z,55.70
2023-04-12T08:53:07.252Z,61.23
2023-04-12T08:55:35.319Z,65.17
2023-04-12T08:58:07.449Z,66.43
2023-04-12T09:00:35.740Z,58.87
2023-04-12T09:03:03.957Z,62.37
2023-04-12T09:05:33.814Z,57.03
2023-04-12T09:08:01.797Z,61.63
2023-04-12T09:10:34.330Z,60.47
2023-04-12T09:13:02.614Z,65.23
2023-04-12T09:15:30.756Z,56.17
2023-04-12T09:18:07.332Z,56.73
2023-04-12T09:20:36.935Z,57.27
2023-04-12T09:23:19.388Z,57.67
2023-04-12T09:25:48.417Z,42.60
2023-04-12T09:28:25.748Z,46.33
2023-04-12T09:30:54.622Z,47.73
2023-04-12T09:33:23.953Z,47.93
2023-04-12T09:36:02.827Z,47.47
2023-04-12T09:38:31.392Z,47.07
2023-04-12T09:41:17.070Z,53.13
2023-04-12T09:43:47.167Z,52.03
2023-04-12T09:46:16.535Z,50.13
2023-04-12T09:48:51.236Z,55.03
2023-04-12T09:51:28.541Z,45.53
2023-04-12T09:54:00.738Z,47.43
2023-04-12T09:56:32.373Z,49.00
2023-04-12T09:59:03.676Z,48.33
2023-04-12T10:01:35.593Z,49.75
2023-04-12T10:04:04.793Z,45.47
2023-04-12T10:06:35.868Z,44.28
2023-04-12T10:09:05.533Z,45.17
2023-04-12T10:11:35.336Z,43.40
2023-04-12T10:14:04.395Z,44.45
2023-04-12T10:16:34.581Z,45.95
2023-04-12T10:19:06.730Z,48.17
2023-04-12T10:21:36.186Z,49.33
2023-04-12T10:24:06.492Z,54.67
2023-04-12T10:26:35.123Z,43.40
2023-04-12T10:29:25.928Z,44.60
2023-04-12T10:31:54.185Z,50.30
2023-04-12T10:34:26.638Z,48.58
2023-04-12T10:36:57.169Z,43.33
2023-04-12T10:39:41.197Z,48.60
2023-04-12T10:42:22.706Z,56.80
2023-04-12T10:44:52.083Z,64.00
2023-04-12T10:47:53.289Z,59.57
2023-04-12T10:50:24.563Z,59.90
2023-04-12T10:53:25.758Z,57.70
2023-04-12T10:55:54.095Z,45.75
2023-04-12T10:58:57.651Z,44.67
2023-04-12T11:01:27.250Z,51.93
2023-04-12T11:04:09.489Z,59.33
2023-04-12T11:06:49.096Z,54.63
2023-04-12T11:09:23.059Z,51.85
2023-04-12T11:11:51.370Z,60.80
2023-04-12T11:14:19.793Z,52.67
2023-04-12T11:17:25.944Z,62.53
2023-04-12T11:19:59.490Z,58.27
2023-04-12T11:22:30.252Z,58.70
2023-04-12T11:25:01.496Z,63.95
2023-04-12T11:27:31.810Z,66.20
2023-04-12T11:30:01.204Z,54.22
2023-04-12T11:32:31.375Z,64.15
2023-04-12T11:34:59.824Z,64.10
2023-04-12T11:37:27.965Z,65.93
2023-04-12T11:39:59.084Z,68.93
2023-04-12T11:42:29.977Z,72.80
2023-04-12T11:45:03.128Z,77.43
2023-04-12T11:47:33.253Z,74.55
2023-04-12T11:50:01.298Z,72.00
2023-04-12T11:52:31.116Z,68.60
2023-04-12T11:55:02.395Z,64.70
2023-04-12T11:57:31.111Z,73.30
2023-04-12T12:00:00.263Z,67.70
2023-04-12T12:02:33.089Z,67.68
2023-04-12T12:05:03.268Z,72.65
2023-04-12T12:07:31.821Z,85.78
2023-04-12T12:10:02.331Z,96.30
2023-04-12T12:12:30.338Z,111.85
2023-04-12T12:15:01.402Z,126.57
2023-04-12T12:17:33.752Z,132.52
2023-04-12T12:20:04.476Z,166.82
2023-04-12T12:22:32.598Z,191.15
2023-04-12T12:25:02.450Z,199.13
2023-04-12T12:27:36.609Z,156.35
2023-04-12T12:30:05.907Z,216.80
2023-04-12T12:32:35.667Z,171.57
2023-04-12T12:35:04.987Z,192.95
2023-04-12T12:37:32.956Z,214.32
2023-04-12T12:40:13.434Z,233.55
2023-04-12T12:42:49.877Z,204.68
2023-04-12T12:45:21.474Z,226.57
2023-04-12T12:47:53.828Z,258.55
2023-04-12T12:50:25.347Z,237.90
2023-04-12T12:52:54.443Z,268.95
2023-04-12T12:55:25.459Z,282.67
2023-04-12T12:58:07.586Z,294.35
2023-04-12T13:00:36.770Z,291.48
2023-04-12T13:03:05.141Z,310.40
2023-04-12T13:05:33.623Z,299.85
2023-04-12T13:08:01.630Z,291.90
2023-04-12T13:10:31.008Z,282.38
2023-04-12T13:13:01.567Z,266.65
2023-04-12T13:15:29.673Z,280.50
2023-04-12T13:17:57.909Z,264.50
2023-04-12T13:20:27.802Z,288.60
2023-04-12T13:22:56.220Z,292.08
2023-04-12T13:25:24.605Z,305.92
2023-04-12T13:27:54.711Z,315.67
2023-04-12T13:30:22.858Z,325.85
2023-04-12T13:32:51.044Z,336.77
2023-04-12T13:35:19.117Z,344.52
2023-04-12T13:37:47.341Z,351.88
2023-04-12T13:40:15.786Z,352.50
2023-04-12T13:42:44.234Z,340.65
2023-04-12T13:45:13.967Z,329.73
2023-04-12T13:47:41.987Z,339.13
2023-04-12T13:50:11.082Z,340.15
2023-04-12T13:52:39.086Z,325.30
2023-04-12T13:55:09.167Z,334.23
2023-04-12T13:57:37.161Z,315.65
2023-04-12T14:00:06.165Z,315.80
2023-04-12T14:02:35.681Z,314.60
2023-04-12T14:05:04.266Z,311.70
2023-04-12T14:07:32.479Z,308.95
2023-04-12T14:10:00.536Z,292.40
2023-04-12T14:12:28.511Z,282.10
2023-04-12T14:14:56.874Z,267.45
2023-04-12T14:17:25.032Z,246.95
2023-04-12T14:19:54.573Z,235.10
2023-04-12T14:22:22.569Z,213.25
2023-04-12T14:24:50.568Z,193.50
2023-04-12T14:27:18.626Z,195.73
2023-04-12T14:29:46.635Z,182.00
2023-04-12T14:32:14.651Z,193.88
2023-04-12T14:34:43.462Z,186.05
2023-04-12T14:37:12.908Z,175.93
2023-04-12T14:39:40.959Z,167.75
2023-04-12T14:42:09.009Z,178.73
2023-04-12T14:44:36.957Z,159.80
2023-04-12T14:47:04.924Z,170.23
2023-04-12T14:49:33.588Z,169.57
2023-04-12T14:52:02.086Z,153.85
2023-04-12T14:54:31.476Z,158.55
2023-04-12T14:57:00.299Z,162.10
2023-04-12T14:59:28.314Z,172.13
2023-04-12T15:01:56.488Z,170.98
2023-04-12T15:04:24.664Z,155.75
2023-04-12T15:06:52.715Z,147.02
2023-04-12T15:09:21.050Z,141.57
2023-04-12T15:11:56.184Z,131.50
2023-04-12T15:14:24.504Z,126.97
2023-04-12T15:16:53.230Z,128.52
2023-04-12T15:19:23.429Z,120.72
2023-04-12T15:21:52.278Z,125.60
2023-04-12T15:24:20.882Z,123.95
2023-04-12T15:26:50.811Z,126.15
2023-04-12T15:29:21.160Z,129.90
2023-04-12T15:31:49.386Z,127.53
2023-04-12T15:34:17.495Z,125.25
2023-04-12T15:36:45.981Z,113.80
2023-04-12T15:39:15.097Z,115.07
2023-04-12T15:41:43.490Z,95.05
2023-04-12T15:44:14.875Z,108.80
2023-04-12T15:46:45.143Z,87.07
2023-04-12T15:49:16.814Z,96.85
2023-04-12T15:51:44.885Z,94.45
2023-04-12T15:54:12.898Z,92.35
2023-04-12T15:56:42.112Z,74.68
2023-04-12T15:59:10.173Z,73.15
2023-04-12T16:01:38.754Z,71.82
2023-04-12T16:04:08.330Z,65.38
2023-04-12T16:06:38.024Z,80.90
2023-04-12T16:09:06.795Z,67.35
2023-04-12T16:11:35.282Z,70.22
2023-04-12T16:14:03.270Z,84.07
2023-04-12T16:16:31.330Z,50.50
2023-04-12T16:19:00.309Z,30.80
2023-04-12T16:21:30.358Z,27.20
2023-04-12T16:23:59.551Z,32.88
2023-04-12T16:26:27.602Z,33.13
2023-04-12T16:28:56.877Z,42.13
2023-04-12T16:31:33.397Z,41.00
2023-04-12T16:34:01.513Z,40.40
2023-04-12T16:36:31.683Z,43.50
2023-04-12T16:39:01.516Z,49.28
2023-04-12T16:41:29.691Z,44.45
2023-04-12T16:44:03.209Z,41.30
2023-04-12T16:46:31.479Z,38.28
2023-04-12T16:49:02.971Z,27.33
2023-04-12T16:51:36.841Z,33.58
2023-04-12T16:54:05.605Z,36.88
2023-04-12T16:56:33.790Z,34.60
2023-04-12T16:59:01.769Z,35.70
2023-04-12T17:01:30.337Z,31.90
2023-04-12T17:04:00.182Z,38.25
2023-04-12T17:06:30.285Z,32.67
2023-04-12T17:08:59.924Z,35.83
2023-04-12T17:11:29.302Z,39.20
2023-04-12T17:13:57.726Z,40.78
2023-04-12T17:16:26.100Z,38.08
2023-04-12T17:18:54.182Z,41.05
2023-04-12T17:21:22.460Z,36.13
2023-04-12T17:23:50.567Z,32.50
2023-04-12T17:26:24.885Z,35.88
2023-04-12T17:28:53.092Z,36.05
2023-04-12T17:31:24.135Z,32.63
2023-04-12T17:33:52.104Z,33.40
2023-04-12T17:36:21.601Z,31.63
2023-04-12T17:38:49.623Z,31.90
2023-04-12T17:41:19.032Z,28.20
2023-04-12T17:43:48.257Z,27.85
2023-04-12T17:46:16.348Z,32.55
2023-04-12T17:48:44.416Z,32.17
2023-04-12T17:51:12.524Z,36.17
2023-04-12T17:53:40.527Z,29.40
2023-04-12T17:56:09.685Z,32.92
2023-04-12T17:58:39.244Z,33.42
2023-04-12T18:01:07.289Z,29.80
2023-04-12T18:03:35.421Z,35.85
2023-04-12T18:06:04.201Z,36.10
2023-04-12T18:08:32.400Z,36.80
2023-04-12T18:11:00.723Z,31.00
2023-04-12T18:13:28.761Z,42.03
2023-04-12T18:15:58.680Z,41.33
2023-04-12T18:18:26.762Z,40.28
2023-04-12T18:20:54.794Z,41.00
2023-04-12T18:23:22.876Z,43.92
2023-04-12T18:25:51.194Z,40.77
2023-04-12T18:28:19.432Z,41.42
2023-04-12T18:30:47.429Z,38.58
2023-04-12T18:33:18.084Z,48.10
2023-04-12T18:35:46.294Z,40.27
2023-04-12T18:38:14.277Z,35.63
2023-04-12T18:40:42.394Z,35.60
2023-04-12T18:43:10.696Z,37.17
2023-04-12T18:45:41.400Z,35.00
2023-04-12T18:48:09.843Z,32.20
2023-04-12T18:50:39.772Z,31.58
2023-04-12T18:53:08.084Z,36.17
2023-04-12T18:55:36.049Z,28.77
2023-04-12T18:58:04.156Z,28.88
2023-04-12T19:00:33.014Z,29.83
2023-04-12T19:03:01.554Z,30.27
2023-04-12T19:05:30.373Z,37.17
2023-04-12T19:08:00.890Z,35.70
2023-04-12T19:10:30.853Z,28.27
2023-04-12T19:12:59.209Z,35.23
2023-04-12T19:15:27.210Z,43.63
2023-04-12T19:17:56.131Z,43.73
2023-04-12T19:20:24.474Z,39.57
2023-04-12T19:22:52.683Z,45.38
2023-04-12T19:25:22.095Z,39.13
2023-04-12T19:27:50.133Z,32.67
2023-04-12T19:30:18.418Z,34.67
2023-04-12T19:32:46.475Z,44.40
2023-04-12T19:35:15.033Z,38.07
2023-04-12T19:37:43.561Z,50.13
2023-04-12T19:40:13.455Z,38.37
2023-04-12T19:42:43.024Z,39.43
2023-04-12T19:45:11.148Z,36.83
2023-04-12T19:47:44.475Z,37.50
2023-04-12T19:50:13.760Z,34.87
2023-04-12T19:52:42.712Z,32.97
2023-04-12T19:55:11.854Z,37.50
2023-04-12T19:57:40.906Z,35.50
2023-04-12T20:00:13.211Z,38.28
2023-04-12T20:02:41.570Z,39.37
2023-04-12T20:05:10.321Z,42.67
2023-04-12T20:07:38.882Z,40.70
2023-04-12T20:10:10.143Z,39.20
2023-04-12T20:12:38.833Z,42.20
2023-04-12T20:15:08.275Z,36.27
2023-04-12T20:17:37.619Z,35.50
2023-04-12T20:20:08.787Z,31.83
2023-04-12T20:22:36.850Z,34.53
2023-04-12T20:25:06.137Z,33.20
2023-04-12T20:27:36.544Z,35.17
2023-04-12T20:30:05.262Z,39.30
2023-04-12T20:32:34.345Z,37.87
2023-04-12T20:35:04.083Z,39.08
2023-04-12T20:37:32.631Z,36.70
2023-04-12T20:40:00.866Z,30.77
2023-04-12T20:42:28.917Z,39.13
2023-04-12T20:44:56.914Z,39.70
2023-04-12T20:47:25.562Z,32.40
2023-04-12T20:49:56.063Z,37.80
2023-04-12T20:52:25.513Z,36.53
2023-04-12T20:54:54.641Z,35.77
2023-04-12T20:57:22.586Z,32.33
2023-04-12T20:59:51.547Z,31.07
2023-04-12T21:02:20.274Z,30.43
2023-04-12T21:04:48.458Z,32.17
2023-04-12T21:07:18.112Z,35.23
2023-04-12T21:09:47.486Z,30.97
2023-04-12T21:12:17.581Z,32.53
2023-04-12T21:14:50.047Z,33.10
2023-04-12T21:17:22.309Z,34.83
2023-04-12T21:19:51.079Z,34.47
2023-04-12T21:22:19.081Z,33.33
2023-04-12T21:24:48.753Z,32.70
2023-04-12T21:27:16.724Z,27.67
2023-04-12T21:29:44.727Z,31.63
2023-04-12T21:32:12.676Z,29.40
2023-04-12T21:34:40.620Z,32.57
2023-04-12T21:37:09.040Z,32.37
2023-04-12T21:39:38.915Z,31.13
2023-04-12T21:42:08.320Z,27.47
2023-04-12T21:44:36.435Z,26.50
2023-04-12T21:47:04.427Z,23.50
2023-04-12T21:49:34.127Z,28.50
2023-04-12T21:52:02.138Z,25.67
2023-04-12T21:54:31.378Z,23.13
2023-04-12T21:56:59.710Z,30.30
2023-04-12T21:59:29.065Z,24.77
2023-04-12T22:01:57.135Z,28.23
2023-04-12T22:04:25.224Z,26.60
2023-04-12T22:06:53.184Z,26.07
2023-04-12T22:09:21.139Z,24.30
2023-04-12T22:11:49.155Z,23.40
2023-04-12T22:14:17.228Z,23.93
2023-04-12T22:16:46.788Z,32.13
2023-04-12T22:19:15.393Z,27.20
2023-04-12T22:21:43.391Z,26.87
2023-04-12T22:24:12.152Z,23.97
2023-04-12T22:26:40.205Z,25.20
2023-04-12T22:29:08.278Z,25.97
2023-04-12T22:31:38.379Z,25.53
2023-04-12T22:34:07.828Z,26.43
2023-04-12T22:36:37.528Z,28.00
2023-04-12T22:39:05.876Z,24.47
2023-04-12T22:41:33.919Z,27.53
2023-04-12T22:44:02.114Z,31.07
2023-04-12T22:46:32.233Z,25.53
2023-04-12T22:49:01.524Z,33.77
2023-04-12T22:51:33.139Z,29.13
2023-04-12T22:54:02.571Z,28.90
2023-04-12T22:56:30.546Z,35.00
2023-04-12T22:58:58.800Z,39.07
2023-04-12T23:01:26.876Z,37.97
2023-04-12T23:03:54.873Z,32.27
2023-04-12T23:06:22.847Z,33.50
2023-04-12T23:08:52.155Z,30.53
2023-04-12T23:11:20.163Z,28.73
2023-04-12T23:13:48.132Z,21.73
2023-04-12T23:16:16.858Z,27.83
2023-04-12T23:18:44.969Z,25.87
2023-04-12T23:21:12.986Z,24.13
2023-04-12T23:23:41.528Z,28.93
2023-04-12T23:26:11.934Z,29.90
2023-04-12T23:28:40.917Z,26.77
2023-04-12T23:31:09.780Z,28.60
2023-04-12T23:33:38.710Z,28.30
2023-04-12T23:36:07.366Z,28.27
2023-04-12T23:38:35.329Z,28.17
2023-04-12T23:41:04.731Z,34.17
2023-04-12T23:43:35.268Z,37.23
2023-04-12T23:46:04.131Z,31.73
2023-04-12T23:48:33.127Z,32.03
2023-04-12T23:51:01.184Z,29.97
2023-04-12T23:53:29.142Z,29.07
2023-04-12T23:55:57.180Z,31.57
2023-04-12T23:58:26.162Z,33.13
